sensor_id;sensor_type;location;lat;lon;timestamp;temperature;humidity
33927;DHT22;20485;50.992;5.550;2023-05-27T00:01:48;10.70;99.90
33927;DHT22;20485;50.992;5.550;2023-05-27T00:04:13;10.60;99.90
33927;DHT22;20485;50.992;5.550;2023-05-27T00:06:40;10.60;99.90
33927;DHT22;20485;50.992;5.550;2023-05-27T00:09:06;10.60;99.90
33927;DHT22;20485;50.992;5.550;2023-05-27T00:11:32;10.50;99.90
33927;DHT22;20485;50.992;5.550;2023-05-27T00:13:57;10.50;99.90
33927;DHT22;20485;50.992;5.550;2023-05-27T00:16:23;10.40;99.90
33927;DHT22;20485;50.992;5.550;2023-05-27T00:18:50;10.40;99.90
33927;DHT22;20485;50.992;5.550;2023-05-27T00:21:16;10.30;99.90
33927;DHT22;20485;50.992;5.550;2023-05-27T00:23:45;10.30;99.90
33927;DHT22;20485;50.992;5.550;2023-05-27T00:26:11;10.30;99.90
33927;DHT22;20485;50.992;5.550;2023-05-27T00:28:37;10.30;99.90
33927;DHT22;20485;50.992;5.550;2023-05-27T00:31:03;10.30;99.90
33927;DHT22;20485;50.992;5.550;2023-05-27T00:33:29;10.30;99.90
33927;DHT22;20485;50.992;5.550;2023-05-27T00:35:54;10.30;99.90
33927;DHT22;20485;50.992;5.550;2023-05-27T00:38:20;10.20;99.90
33927;DHT22;20485;50.992;5.550;2023-05-27T00:40:46;10.20;99.90
33927;DHT22;20485;50.992;5.550;2023-05-27T00:43:13;10.20;99.90
33927;DHT22;20485;50.992;5.550;2023-05-27T00:45:39;10.20;99.90
33927;DHT22;20485;50.992;5.550;2023-05-27T00:48:08;10.10;99.90
33927;DHT22;20485;50.992;5.550;2023-05-27T00:50:33;10.00;99.90
33927;DHT22;20485;50.992;5.550;2023-05-27T00:53:00;10.00;99.90
33927;DHT22;20485;50.992;5.550;2023-05-27T00:55:26;9.90;99.90
33927;DHT22;20485;50.992;5.550;2023-05-27T00:57:52;9.90;99.90
33927;DHT22;20485;50.992;5.550;2023-05-27T01:00:23;9.90;99.90
33927;DHT22;20485;50.992;5.550;2023-05-27T01:02:49;9.90;99.90
33927;DHT22;20485;50.992;5.550;2023-05-27T01:05:16;9.90;99.90
33927;DHT22;20485;50.992;5.550;2023-05-27T01:10:36;9.80;99.90
33927;DHT22;20485;50.992;5.550;2023-05-27T01:13:40;9.70;99.90
33927;DHT22;20485;50.992;5.550;2023-05-27T01:16:11;9.70;99.90
33927;DHT22;20485;50.992;5.550;2023-05-27T01:18:39;9.70;99.90
33927;DHT22;20485;50.992;5.550;2023-05-27T01:21:14;9.70;99.90
33927;DHT22;20485;50.992;5.550;2023-05-27T01:23:43;9.60;99.90
33927;DHT22;20485;50.992;5.550;2023-05-27T01:26:11;9.60;99.90
33927;DHT22;20485;50.992;5.550;2023-05-27T01:28:37;9.60;99.90
33927;DHT22;20485;50.992;5.550;2023-05-27T01:31:28;9.40;99.90
33927;DHT22;20485;50.992;5.550;2023-05-27T01:34:01;9.40;99.90
33927;DHT22;20485;50.992;5.550;2023-05-27T01:36:31;9.40;99.90
33927;DHT22;20485;50.992;5.550;2023-05-27T01:39:00;9.40;99.90
33927;DHT22;20485;50.992;5.550;2023-05-27T01:41:26;9.30;99.90
33927;DHT22;20485;50.992;5.550;2023-05-27T01:43:52;9.30;99.90
33927;DHT22;20485;50.992;5.550;2023-05-27T01:46:18;9.30;99.90
33927;DHT22;20485;50.992;5.550;2023-05-27T01:48:44;9.30;99.90
33927;DHT22;20485;50.992;5.550;2023-05-27T01:51:10;9.30;99.90
33927;DHT22;20485;50.992;5.550;2023-05-27T01:53:35;9.20;99.90
33927;DHT22;20485;50.992;5.550;2023-05-27T01:56:01;9.10;99.90
33927;DHT22;20485;50.992;5.550;2023-05-27T01:58:27;9.10;99.90
33927;DHT22;20485;50.992;5.550;2023-05-27T02:00:52;9.10;99.90
33927;DHT22;20485;50.992;5.550;2023-05-27T02:03:18;9.10;99.90
33927;DHT22;20485;50.992;5.550;2023-05-27T02:05:44;9.10;99.90
33927;DHT22;20485;50.992;5.550;2023-05-27T02:08:10;9.10;99.90
33927;DHT22;20485;50.992;5.550;2023-05-27T02:10:36;9.10;99.90
33927;DHT22;20485;50.992;5.550;2023-05-27T02:13:02;9.10;99.90
33927;DHT22;20485;50.992;5.550;2023-05-27T02:15:29;9.00;99.90
33927;DHT22;20485;50.992;5.550;2023-05-27T02:17:55;9.00;99.90
33927;DHT22;20485;50.992;5.550;2023-05-27T02:20:24;8.90;99.90
33927;DHT22;20485;50.992;5.550;2023-05-27T02:22:50;8.90;99.90
33927;DHT22;20485;50.992;5.550;2023-05-27T02:25:16;8.90;99.90
33927;DHT22;20485;50.992;5.550;2023-05-27T02:27:42;8.90;99.90
33927;DHT22;20485;50.992;5.550;2023-05-27T02:30:13;8.90;99.90
33927;DHT22;20485;50.992;5.550;2023-05-27T02:32:38;8.80;99.90
33927;DHT22;20485;50.992;5.550;2023-05-27T02:35:04;8.80;99.90
33927;DHT22;20485;50.992;5.550;2023-05-27T02:37:30;8.70;99.90
33927;DHT22;20485;50.992;5.550;2023-05-27T02:39:55;8.70;99.90
33927;DHT22;20485;50.992;5.550;2023-05-27T02:42:22;8.60;99.90
33927;DHT22;20485;50.992;5.550;2023-05-27T02:44:47;8.60;99.90
33927;DHT22;20485;50.992;5.550;2023-05-27T02:47:13;8.60;99.90
33927;DHT22;20485;50.992;5.550;2023-05-27T02:49:38;8.60;99.90
33927;DHT22;20485;50.992;5.550;2023-05-27T02:52:04;8.60;99.90
33927;DHT22;20485;50.992;5.550;2023-05-27T02:54:30;8.50;99.90
33927;DHT22;20485;50.992;5.550;2023-05-27T02:56:56;8.50;99.90
33927;DHT22;20485;50.992;5.550;2023-05-27T02:59:21;8.40;99.90
33927;DHT22;20485;50.992;5.550;2023-05-27T03:01:47;8.40;99.90
33927;DHT22;20485;50.992;5.550;2023-05-27T03:04:13;8.40;99.90
33927;DHT22;20485;50.992;5.550;2023-05-27T03:06:38;8.30;99.90
33927;DHT22;20485;50.992;5.550;2023-05-27T03:09:04;8.40;99.90
33927;DHT22;20485;50.992;5.550;2023-05-27T03:11:30;8.50;99.90
33927;DHT22;20485;50.992;5.550;2023-05-27T03:13:55;8.20;99.90
33927;DHT22;20485;50.992;5.550;2023-05-27T03:16:21;8.20;99.90
33927;DHT22;20485;50.992;5.550;2023-05-27T03:18:48;8.20;99.90
33927;DHT22;20485;50.992;5.550;2023-05-27T03:21:14;8.20;99.90
33927;DHT22;20485;50.992;5.550;2023-05-27T03:23:39;8.20;99.90
33927;DHT22;20485;50.992;5.550;2023-05-27T03:26:05;8.20;99.90
33927;DHT22;20485;50.992;5.550;2023-05-27T03:28:31;8.10;99.90
33927;DHT22;20485;50.992;5.550;2023-05-27T03:30:56;8.10;99.90
33927;DHT22;20485;50.992;5.550;2023-05-27T03:33:25;8.10;99.90
33927;DHT22;20485;50.992;5.550;2023-05-27T03:35:51;8.10;99.90
33927;DHT22;20485;50.992;5.550;2023-05-27T03:38:17;8.10;99.90
33927;DHT22;20485;50.992;5.550;2023-05-27T03:40:42;8.10;99.90
33927;DHT22;20485;50.992;5.550;2023-05-27T03:43:08;8.00;99.90
33927;DHT22;20485;50.992;5.550;2023-05-27T03:45:34;8.00;99.90
33927;DHT22;20485;50.992;5.550;2023-05-27T03:47:59;7.90;99.90
33927;DHT22;20485;50.992;5.550;2023-05-27T03:50:25;7.90;99.90
33927;DHT22;20485;50.992;5.550;2023-05-27T03:52:51;7.90;99.90
33927;DHT22;20485;50.992;5.550;2023-05-27T03:55:16;7.90;99.90
33927;DHT22;20485;50.992;5.550;2023-05-27T03:57:42;8.00;99.90
33927;DHT22;20485;50.992;5.550;2023-05-27T04:00:09;7.90;99.90
33927;DHT22;20485;50.992;5.550;2023-05-27T04:02:37;7.90;99.90
33927;DHT22;20485;50.992;5.550;2023-05-27T04:05:03;8.00;99.90
33927;DHT22;20485;50.992;5.550;2023-05-27T04:07:29;8.00;99.90
33927;DHT22;20485;50.992;5.550;2023-05-27T04:09:55;7.90;99.90
33927;DHT22;20485;50.992;5.550;2023-05-27T04:12:20;8.00;99.90
33927;DHT22;20485;50.992;5.550;2023-05-27T04:14:46;8.00;99.90
33927;DHT22;20485;50.992;5.550;2023-05-27T04:17:12;8.00;99.90
33927;DHT22;20485;50.992;5.550;2023-05-27T04:19:38;8.00;99.90
33927;DHT22;20485;50.992;5.550;2023-05-27T04:22:04;8.00;99.90
33927;DHT22;20485;50.992;5.550;2023-05-27T04:24:30;8.00;99.90
33927;DHT22;20485;50.992;5.550;2023-05-27T04:26:56;8.00;99.90
33927;DHT22;20485;50.992;5.550;2023-05-27T04:29:22;8.00;99.90
33927;DHT22;20485;50.992;5.550;2023-05-27T04:31:50;7.90;99.90
33927;DHT22;20485;50.992;5.550;2023-05-27T04:34:16;8.00;99.90
33927;DHT22;20485;50.992;5.550;2023-05-27T04:36:42;8.00;99.90
33927;DHT22;20485;50.992;5.550;2023-05-27T04:39:09;8.00;99.90
33927;DHT22;20485;50.992;5.550;2023-05-27T04:41:37;8.10;99.90
33927;DHT22;20485;50.992;5.550;2023-05-27T04:44:06;8.20;99.90
33927;DHT22;20485;50.992;5.550;2023-05-27T04:46:34;8.30;99.90
33927;DHT22;20485;50.992;5.550;2023-05-27T04:48:59;8.30;99.90
33927;DHT22;20485;50.992;5.550;2023-05-27T04:51:25;8.40;99.90
33927;DHT22;20485;50.992;5.550;2023-05-27T04:53:53;8.40;99.90
33927;DHT22;20485;50.992;5.550;2023-05-27T04:56:19;8.40;99.90
33927;DHT22;20485;50.992;5.550;2023-05-27T04:58:45;8.50;99.90
33927;DHT22;20485;50.992;5.550;2023-05-27T05:01:15;8.70;99.90
33927;DHT22;20485;50.992;5.550;2023-05-27T05:03:46;8.90;99.90
33927;DHT22;20485;50.992;5.550;2023-05-27T05:06:22;9.00;99.90
33927;DHT22;20485;50.992;5.550;2023-05-27T05:08:48;9.20;99.90
33927;DHT22;20485;50.992;5.550;2023-05-27T05:11:14;9.20;99.90
33927;DHT22;20485;50.992;5.550;2023-05-27T05:13:40;9.30;99.90
33927;DHT22;20485;50.992;5.550;2023-05-27T05:16:06;9.30;99.90
33927;DHT22;20485;50.992;5.550;2023-05-27T05:18:31;9.20;99.90
33927;DHT22;20485;50.992;5.550;2023-05-27T05:20:57;9.20;99.90
33927;DHT22;20485;50.992;5.550;2023-05-27T05:23:23;9.30;99.90
33927;DHT22;20485;50.992;5.550;2023-05-27T05:25:48;9.20;99.90
33927;DHT22;20485;50.992;5.550;2023-05-27T05:28:20;9.20;99.90
33927;DHT22;20485;50.992;5.550;2023-05-27T05:30:46;9.20;99.90
33927;DHT22;20485;50.992;5.550;2023-05-27T05:33:11;9.20;99.90
33927;DHT22;20485;50.992;5.550;2023-05-27T05:35:37;9.40;99.90
33927;DHT22;20485;50.992;5.550;2023-05-27T05:38:03;9.40;99.90
33927;DHT22;20485;50.992;5.550;2023-05-27T05:40:30;9.30;99.90
33927;DHT22;20485;50.992;5.550;2023-05-27T05:42:55;9.50;99.90
33927;DHT22;20485;50.992;5.550;2023-05-27T05:45:21;9.50;99.90
33927;DHT22;20485;50.992;5.550;2023-05-27T05:47:47;9.60;99.90
33927;DHT22;20485;50.992;5.550;2023-05-27T05:50:12;9.80;99.90
33927;DHT22;20485;50.992;5.550;2023-05-27T05:52:39;9.90;99.90
33927;DHT22;20485;50.992;5.550;2023-05-27T05:55:05;9.90;99.90
33927;DHT22;20485;50.992;5.550;2023-05-27T05:57:31;9.80;99.90
33927;DHT22;20485;50.992;5.550;2023-05-27T05:59:57;9.80;99.90
33927;DHT22;20485;50.992;5.550;2023-05-27T06:02:23;9.80;99.90
33927;DHT22;20485;50.992;5.550;2023-05-27T06:04:50;9.90;99.90
33927;DHT22;20485;50.992;5.550;2023-05-27T06:07:18;9.90;99.90
33927;DHT22;20485;50.992;5.550;2023-05-27T06:09:44;10.10;99.90
33927;DHT22;20485;50.992;5.550;2023-05-27T06:12:10;10.20;99.90
33927;DHT22;20485;50.992;5.550;2023-05-27T06:14:36;10.30;99.90
33927;DHT22;20485;50.992;5.550;2023-05-27T06:17:04;10.30;99.90
33927;DHT22;20485;50.992;5.550;2023-05-27T06:19:30;10.50;99.90
33927;DHT22;20485;50.992;5.550;2023-05-27T06:21:56;10.50;99.90
33927;DHT22;20485;50.992;5.550;2023-05-27T06:24:23;10.50;99.90
33927;DHT22;20485;50.992;5.550;2023-05-27T06:26:49;10.50;99.90
33927;DHT22;20485;50.992;5.550;2023-05-27T06:29:17;10.60;99.90
33927;DHT22;20485;50.992;5.550;2023-05-27T06:31:43;10.80;99.90
33927;DHT22;20485;50.992;5.550;2023-05-27T06:34:09;10.80;99.90
33927;DHT22;20485;50.992;5.550;2023-05-27T06:36:35;10.90;99.90
33927;DHT22;20485;50.992;5.550;2023-05-27T06:39:01;10.90;99.90
33927;DHT22;20485;50.992;5.550;2023-05-27T06:41:26;11.00;99.90
33927;DHT22;20485;50.992;5.550;2023-05-27T06:43:52;11.00;99.90
33927;DHT22;20485;50.992;5.550;2023-05-27T06:46:18;11.00;99.90
33927;DHT22;20485;50.992;5.550;2023-05-27T06:48:43;11.10;99.90
33927;DHT22;20485;50.992;5.550;2023-05-27T06:51:09;11.20;99.90
33927;DHT22;20485;50.992;5.550;2023-05-27T06:53:35;11.20;99.90
33927;DHT22;20485;50.992;5.550;2023-05-27T06:56:01;11.30;99.90
33927;DHT22;20485;50.992;5.550;2023-05-27T06:58:26;11.40;99.90
33927;DHT22;20485;50.992;5.550;2023-05-27T07:00:52;11.50;99.90
33927;DHT22;20485;50.992;5.550;2023-05-27T07:03:18;11.70;99.90
33927;DHT22;20485;50.992;5.550;2023-05-27T07:05:43;11.70;99.90
33927;DHT22;20485;50.992;5.550;2023-05-27T07:08:09;11.70;99.90
33927;DHT22;20485;50.992;5.550;2023-05-27T07:10:35;11.80;99.90
33927;DHT22;20485;50.992;5.550;2023-05-27T07:13:00;11.90;99.90
33927;DHT22;20485;50.992;5.550;2023-05-27T07:15:26;11.90;99.90
33927;DHT22;20485;50.992;5.550;2023-05-27T07:17:56;12.00;99.90
33927;DHT22;20485;50.992;5.550;2023-05-27T07:20:22;12.10;99.90
33927;DHT22;20485;50.992;5.550;2023-05-27T07:22:47;12.10;99.90
33927;DHT22;20485;50.992;5.550;2023-05-27T07:25:16;12.20;99.90
33927;DHT22;20485;50.992;5.550;2023-05-27T07:27:41;12.30;99.90
33927;DHT22;20485;50.992;5.550;2023-05-27T07:30:07;12.40;99.90
33927;DHT22;20485;50.992;5.550;2023-05-27T07:32:33;12.50;99.90
33927;DHT22;20485;50.992;5.550;2023-05-27T07:34:59;12.50;99.90
33927;DHT22;20485;50.992;5.550;2023-05-27T07:37:25;12.50;99.90
33927;DHT22;20485;50.992;5.550;2023-05-27T07:39:51;12.60;99.90
33927;DHT22;20485;50.992;5.550;2023-05-27T07:42:17;12.70;99.90
33927;DHT22;20485;50.992;5.550;2023-05-27T07:44:43;12.80;99.90
33927;DHT22;20485;50.992;5.550;2023-05-27T07:47:09;12.90;99.90
33927;DHT22;20485;50.992;5.550;2023-05-27T07:49:34;13.00;99.90
33927;DHT22;20485;50.992;5.550;2023-05-27T07:52:00;13.20;99.90
33927;DHT22;20485;50.992;5.550;2023-05-27T07:54:26;13.30;99.90
33927;DHT22;20485;50.992;5.550;2023-05-27T07:56:52;13.40;99.90
33927;DHT22;20485;50.992;5.550;2023-05-27T07:59:18;13.40;99.90
33927;DHT22;20485;50.992;5.550;2023-05-27T08:01:44;13.60;99.90
33927;DHT22;20485;50.992;5.550;2023-05-27T08:04:11;13.70;99.90
33927;DHT22;20485;50.992;5.550;2023-05-27T08:06:37;13.60;99.90
33927;DHT22;20485;50.992;5.550;2023-05-27T08:09:02;13.70;99.90
33927;DHT22;20485;50.992;5.550;2023-05-27T08:11:29;13.70;99.90
33927;DHT22;20485;50.992;5.550;2023-05-27T08:13:55;13.90;99.90
33927;DHT22;20485;50.992;5.550;2023-05-27T08:16:21;14.00;99.90
33927;DHT22;20485;50.992;5.550;2023-05-27T08:18:46;14.00;99.90
33927;DHT22;20485;50.992;5.550;2023-05-27T08:21:12;14.10;99.90
33927;DHT22;20485;50.992;5.550;2023-05-27T08:23:38;14.10;99.90
33927;DHT22;20485;50.992;5.550;2023-05-27T08:26:04;14.30;99.90
33927;DHT22;20485;50.992;5.550;2023-05-27T08:28:29;14.30;99.90
33927;DHT22;20485;50.992;5.550;2023-05-27T08:30:55;14.50;99.90
33927;DHT22;20485;50.992;5.550;2023-05-27T08:33:23;14.60;99.90
33927;DHT22;20485;50.992;5.550;2023-05-27T08:35:49;14.70;99.90
33927;DHT22;20485;50.992;5.550;2023-05-27T08:38:15;14.70;99.90
33927;DHT22;20485;50.992;5.550;2023-05-27T08:40:40;14.80;99.90
33927;DHT22;20485;50.992;5.550;2023-05-27T08:43:06;15.00;99.90
33927;DHT22;20485;50.992;5.550;2023-05-27T08:45:32;15.10;99.90
33927;DHT22;20485;50.992;5.550;2023-05-27T08:47:59;15.10;99.90
33927;DHT22;20485;50.992;5.550;2023-05-27T08:50:26;15.00;99.90
33927;DHT22;20485;50.992;5.550;2023-05-27T08:52:54;15.10;99.90
33927;DHT22;20485;50.992;5.550;2023-05-27T08:55:21;15.20;99.90
33927;DHT22;20485;50.992;5.550;2023-05-27T08:57:55;15.20;99.90
33927;DHT22;20485;50.992;5.550;2023-05-27T09:00:22;15.30;99.90
33927;DHT22;20485;50.992;5.550;2023-05-27T09:02:47;15.40;99.90
33927;DHT22;20485;50.992;5.550;2023-05-27T09:05:17;15.50;99.90
33927;DHT22;20485;50.992;5.550;2023-05-27T09:07:43;15.60;99.90
33927;DHT22;20485;50.992;5.550;2023-05-27T09:10:09;15.70;99.90
33927;DHT22;20485;50.992;5.550;2023-05-27T09:12:35;15.80;99.90
33927;DHT22;20485;50.992;5.550;2023-05-27T09:15:05;15.90;99.90
33927;DHT22;20485;50.992;5.550;2023-05-27T09:17:31;15.90;99.90
33927;DHT22;20485;50.992;5.550;2023-05-27T09:19:57;15.90;99.90
33927;DHT22;20485;50.992;5.550;2023-05-27T09:22:31;15.90;99.90
33927;DHT22;20485;50.992;5.550;2023-05-27T09:24:57;16.10;99.90
33927;DHT22;20485;50.992;5.550;2023-05-27T09:27:27;15.90;99.90
33927;DHT22;20485;50.992;5.550;2023-05-27T09:29:53;16.20;99.90
33927;DHT22;20485;50.992;5.550;2023-05-27T09:32:32;16.30;99.90
33927;DHT22;20485;50.992;5.550;2023-05-27T09:34:59;16.20;99.90
33927;DHT22;20485;50.992;5.550;2023-05-27T09:37:31;16.20;99.90
33927;DHT22;20485;50.992;5.550;2023-05-27T09:40:03;16.30;99.90
33927;DHT22;20485;50.992;5.550;2023-05-27T09:45:04;16.80;99.90
33927;DHT22;20485;50.992;5.550;2023-05-27T09:47:37;16.80;99.90
33927;DHT22;20485;50.992;5.550;2023-05-27T09:50:05;16.70;99.90
33927;DHT22;20485;50.992;5.550;2023-05-27T09:52:35;16.80;99.90
33927;DHT22;20485;50.992;5.550;2023-05-27T09:55:02;16.90;99.90
33927;DHT22;20485;50.992;5.550;2023-05-27T09:57:29;17.10;99.90
33927;DHT22;20485;50.992;5.550;2023-05-27T09:59:55;17.10;99.90
33927;DHT22;20485;50.992;5.550;2023-05-27T10:02:21;17.10;99.90
33927;DHT22;20485;50.992;5.550;2023-05-27T10:04:48;17.20;99.90
33927;DHT22;20485;50.992;5.550;2023-05-27T10:07:17;17.10;99.90
33927;DHT22;20485;50.992;5.550;2023-05-27T10:09:48;17.20;99.90
33927;DHT22;20485;50.992;5.550;2023-05-27T10:12:16;17.30;99.90
33927;DHT22;20485;50.992;5.550;2023-05-27T10:14:42;17.30;99.90
33927;DHT22;20485;50.992;5.550;2023-05-27T10:17:11;17.40;99.90
33927;DHT22;20485;50.992;5.550;2023-05-27T10:19:37;17.50;99.90
33927;DHT22;20485;50.992;5.550;2023-05-27T10:22:12;17.60;99.90
33927;DHT22;20485;50.992;5.550;2023-05-27T10:24:39;17.70;99.90
33927;DHT22;20485;50.992;5.550;2023-05-27T10:27:09;17.70;99.90
33927;DHT22;20485;50.992;5.550;2023-05-27T10:29:36;17.70;99.90
33927;DHT22;20485;50.992;5.550;2023-05-27T10:32:05;17.90;99.90
33927;DHT22;20485;50.992;5.550;2023-05-27T10:34:35;17.90;99.90
33927;DHT22;20485;50.992;5.550;2023-05-27T10:37:01;18.20;99.90
33927;DHT22;20485;50.992;5.550;2023-05-27T10:39:27;18.30;99.90
33927;DHT22;20485;50.992;5.550;2023-05-27T10:41:55;18.30;99.90
33927;DHT22;20485;50.992;5.550;2023-05-27T10:44:32;18.30;99.90
33927;DHT22;20485;50.992;5.550;2023-05-27T10:47:21;18.30;99.90
33927;DHT22;20485;50.992;5.550;2023-05-27T10:49:50;18.30;99.90
33927;DHT22;20485;50.992;5.550;2023-05-27T10:52:17;18.20;99.90
33927;DHT22;20485;50.992;5.550;2023-05-27T10:54:47;18.10;99.90
33927;DHT22;20485;50.992;5.550;2023-05-27T10:57:17;18.20;99.90
33927;DHT22;20485;50.992;5.550;2023-05-27T10:59:53;18.40;99.90
33927;DHT22;20485;50.992;5.550;2023-05-27T11:02:20;18.50;99.90
33927;DHT22;20485;50.992;5.550;2023-05-27T11:04:46;18.70;99.90
33927;DHT22;20485;50.992;5.550;2023-05-27T11:07:17;18.80;99.90
33927;DHT22;20485;50.992;5.550;2023-05-27T11:09:55;18.90;99.90
33927;DHT22;20485;50.992;5.550;2023-05-27T11:12:22;18.90;99.90
33927;DHT22;20485;50.992;5.550;2023-05-27T11:14:49;18.70;99.90
33927;DHT22;20485;50.992;5.550;2023-05-27T11:17:15;18.80;99.90
33927;DHT22;20485;50.992;5.550;2023-05-27T11:19:42;19.00;99.90
33927;DHT22;20485;50.992;5.550;2023-05-27T11:22:08;19.20;99.90
33927;DHT22;20485;50.992;5.550;2023-05-27T11:24:35;19.30;99.90
33927;DHT22;20485;50.992;5.550;2023-05-27T11:27:08;19.40;99.90
33927;DHT22;20485;50.992;5.550;2023-05-27T11:29:34;19.40;99.90
33927;DHT22;20485;50.992;5.550;2023-05-27T12:13:55;19.80;99.60
33927;DHT22;20485;50.992;5.550;2023-05-27T12:16:21;20.10;98.90
33927;DHT22;20485;50.992;5.550;2023-05-27T12:18:46;20.40;99.40
33927;DHT22;20485;50.992;5.550;2023-05-27T12:21:14;20.30;98.00
33927;DHT22;20485;50.992;5.550;2023-05-27T12:23:40;20.40;99.00
33927;DHT22;20485;50.992;5.550;2023-05-27T12:26:06;20.40;96.70
33927;DHT22;20485;50.992;5.550;2023-05-27T12:28:31;20.40;98.20
33927;DHT22;20485;50.992;5.550;2023-05-27T12:30:57;20.80;99.70
33927;DHT22;20485;50.992;5.550;2023-05-27T12:33:23;21.10;99.50
33927;DHT22;20485;50.992;5.550;2023-05-27T12:35:49;21.10;97.30
33927;DHT22;20485;50.992;5.550;2023-05-27T12:38:14;21.10;96.60
33927;DHT22;20485;50.992;5.550;2023-05-27T12:40:40;21.30;97.30
33927;DHT22;20485;50.992;5.550;2023-05-27T12:43:06;21.20;96.70
33927;DHT22;20485;50.992;5.550;2023-05-27T12:45:32;21.10;98.20
33927;DHT22;20485;50.992;5.550;2023-05-27T12:47:58;21.40;98.90
33927;DHT22;20485;50.992;5.550;2023-05-27T12:50:24;21.50;97.30
33927;DHT22;20485;50.992;5.550;2023-05-27T12:52:50;21.50;98.10
33927;DHT22;20485;50.992;5.550;2023-05-27T12:55:18;21.40;98.20
33927;DHT22;20485;50.992;5.550;2023-05-27T12:57:47;21.60;96.90
33927;DHT22;20485;50.992;5.550;2023-05-27T13:00:14;21.40;96.20
33927;DHT22;20485;50.992;5.550;2023-05-27T13:02:41;21.70;97.00
33927;DHT22;20485;50.992;5.550;2023-05-27T13:05:09;21.80;95.90
33927;DHT22;20485;50.992;5.550;2023-05-27T13:07:36;21.90;97.20
33927;DHT22;20485;50.992;5.550;2023-05-27T13:10:04;22.10;96.70
33927;DHT22;20485;50.992;5.550;2023-05-27T13:12:31;21.80;95.40
33927;DHT22;20485;50.992;5.550;2023-05-27T13:14:58;22.00;97.10
33927;DHT22;20485;50.992;5.550;2023-05-27T13:17:24;22.20;95.20
33927;DHT22;20485;50.992;5.550;2023-05-27T13:19:49;22.00;94.80
33927;DHT22;20485;50.992;5.550;2023-05-27T13:22:15;22.00;95.70
33927;DHT22;20485;50.992;5.550;2023-05-27T13:24:42;22.10;94.60
33927;DHT22;20485;50.992;5.550;2023-05-27T13:27:08;21.50;93.60
33927;DHT22;20485;50.992;5.550;2023-05-27T13:29:34;22.00;94.20
33927;DHT22;20485;50.992;5.550;2023-05-27T13:32:00;22.00;95.10
33927;DHT22;20485;50.992;5.550;2023-05-27T13:34:27;21.90;94.30
33927;DHT22;20485;50.992;5.550;2023-05-27T13:36:54;22.20;95.60
33927;DHT22;20485;50.992;5.550;2023-05-27T13:39:19;22.40;95.00
33927;DHT22;20485;50.992;5.550;2023-05-27T13:41:45;22.50;93.50
33927;DHT22;20485;50.992;5.550;2023-05-27T13:44:11;22.10;93.20
33927;DHT22;20485;50.992;5.550;2023-05-27T13:46:37;22.20;93.30
33927;DHT22;20485;50.992;5.550;2023-05-27T13:49:04;22.40;92.80
33927;DHT22;20485;50.992;5.550;2023-05-27T13:51:30;22.50;93.40
33927;DHT22;20485;50.992;5.550;2023-05-27T13:53:56;22.40;92.00
33927;DHT22;20485;50.992;5.550;2023-05-27T13:56:22;22.70;92.00
33927;DHT22;20485;50.992;5.550;2023-05-27T13:58:51;22.90;92.60
33927;DHT22;20485;50.992;5.550;2023-05-27T14:01:18;22.90;91.80
33927;DHT22;20485;50.992;5.550;2023-05-27T14:03:45;22.70;90.90
33927;DHT22;20485;50.992;5.550;2023-05-27T14:06:10;22.90;92.00
33927;DHT22;20485;50.992;5.550;2023-05-27T14:08:36;23.30;92.40
33927;DHT22;20485;50.992;5.550;2023-05-27T14:11:05;23.20;91.10
33927;DHT22;20485;50.992;5.550;2023-05-27T14:13:31;23.20;92.90
33927;DHT22;20485;50.992;5.550;2023-05-27T14:15:58;23.30;92.30
33927;DHT22;20485;50.992;5.550;2023-05-27T14:18:24;23.10;92.10
33927;DHT22;20485;50.992;5.550;2023-05-27T14:20:49;22.80;90.40
33927;DHT22;20485;50.992;5.550;2023-05-27T14:23:16;22.80;90.90
33927;DHT22;20485;50.992;5.550;2023-05-27T14:25:41;23.10;91.90
33927;DHT22;20485;50.992;5.550;2023-05-27T14:28:07;23.20;91.20
33927;DHT22;20485;50.992;5.550;2023-05-27T14:30:33;23.50;92.40
33927;DHT22;20485;50.992;5.550;2023-05-27T14:33:06;23.20;90.50
33927;DHT22;20485;50.992;5.550;2023-05-27T14:35:36;23.30;90.80
33927;DHT22;20485;50.992;5.550;2023-05-27T14:38:02;23.10;90.20
33927;DHT22;20485;50.992;5.550;2023-05-27T14:40:29;23.40;89.60
33927;DHT22;20485;50.992;5.550;2023-05-27T14:42:56;23.80;90.60
33927;DHT22;20485;50.992;5.550;2023-05-27T14:45:22;23.50;89.70
33927;DHT22;20485;50.992;5.550;2023-05-27T14:47:49;23.90;90.70
33927;DHT22;20485;50.992;5.550;2023-05-27T14:50:21;23.70;89.60
33927;DHT22;20485;50.992;5.550;2023-05-27T14:52:49;24.00;90.80
33927;DHT22;20485;50.992;5.550;2023-05-27T14:55:15;24.30;88.80
33927;DHT22;20485;50.992;5.550;2023-05-27T14:57:42;24.40;88.10
33927;DHT22;20485;50.992;5.550;2023-05-27T15:00:08;25.00;91.40
33927;DHT22;20485;50.992;5.550;2023-05-27T15:02:37;25.80;91.20
33927;DHT22;20485;50.992;5.550;2023-05-27T15:05:04;25.80;83.30
33927;DHT22;20485;50.992;5.550;2023-05-27T15:07:32;25.80;82.60
33927;DHT22;20485;50.992;5.550;2023-05-27T15:09:58;26.20;83.50
33927;DHT22;20485;50.992;5.550;2023-05-27T15:12:24;27.30;79.30
33927;DHT22;20485;50.992;5.550;2023-05-27T15:14:49;27.00;75.70
33927;DHT22;20485;50.992;5.550;2023-05-27T15:17:15;27.20;73.90
33927;DHT22;20485;50.992;5.550;2023-05-27T15:19:41;28.00;75.60
33927;DHT22;20485;50.992;5.550;2023-05-27T15:22:07;27.80;74.40
33927;DHT22;20485;50.992;5.550;2023-05-27T15:24:33;28.10;76.90
33927;DHT22;20485;50.992;5.550;2023-05-27T15:26:59;29.70;74.10
33927;DHT22;20485;50.992;5.550;2023-05-27T15:29:26;31.10;73.60
33927;DHT22;20485;50.992;5.550;2023-05-27T15:31:53;30.40;69.70
33927;DHT22;20485;50.992;5.550;2023-05-27T15:34:19;29.80;71.30
33927;DHT22;20485;50.992;5.550;2023-05-27T15:36:45;28.80;71.20
33927;DHT22;20485;50.992;5.550;2023-05-27T15:39:11;29.30;67.90
33927;DHT22;20485;50.992;5.550;2023-05-27T15:41:37;29.70;67.70
33927;DHT22;20485;50.992;5.550;2023-05-27T15:44:03;30.00;68.60
33927;DHT22;20485;50.992;5.550;2023-05-27T15:46:28;30.20;67.00
33927;DHT22;20485;50.992;5.550;2023-05-27T15:48:54;29.90;63.40
33927;DHT22;20485;50.992;5.550;2023-05-27T15:51:21;29.00;63.40
33927;DHT22;20485;50.992;5.550;2023-05-27T15:53:46;28.80;64.10
33927;DHT22;20485;50.992;5.550;2023-05-27T15:56:12;27.60;64.60
33927;DHT22;20485;50.992;5.550;2023-05-27T15:58:38;26.30;66.70
33927;DHT22;20485;50.992;5.550;2023-05-27T16:01:05;25.40;69.70
33927;DHT22;20485;50.992;5.550;2023-05-27T16:03:31;24.60;71.60
33927;DHT22;20485;50.992;5.550;2023-05-27T16:05:57;24.40;72.90
33927;DHT22;20485;50.992;5.550;2023-05-27T16:08:22;24.50;73.50
33927;DHT22;20485;50.992;5.550;2023-05-27T16:10:52;24.10;73.70
33927;DHT22;20485;50.992;5.550;2023-05-27T16:13:23;23.70;74.60
33927;DHT22;20485;50.992;5.550;2023-05-27T16:15:48;23.20;72.80
33927;DHT22;20485;50.992;5.550;2023-05-27T16:18:14;22.90;74.20
33927;DHT22;20485;50.992;5.550;2023-05-27T16:20:44;22.70;75.80